sensor_id;sensor_type;location;lat;lon;timestamp;pressure;altitude;pressure_sealevel;temperature
16956;BMP180;8594;52.052;8.354;2022-12-13T00:01:12;100222.00;;;1.80
16956;BMP180;8594;52.052;8.354;2022-12-13T00:03:40;100225.00;;;2.00
16956;BMP180;8594;52.052;8.354;2022-12-13T00:06:11;100216.00;;;1.80
16956;BMP180;8594;52.052;8.354;2022-12-13T00:08:39;100216.00;;;1.30
16956;BMP180;8594;52.052;8.354;2022-12-13T00:11:10;100204.00;;;1.30
16956;BMP180;8594;52.052;8.354;2022-12-13T00:13:38;100215.00;;;1.30
16956;BMP180;8594;52.052;8.354;2022-12-13T00:16:11;100217.00;;;1.00
16956;BMP180;8594;52.052;8.354;2022-12-13T00:18:38;100211.00;;;1.10
16956;BMP180;8594;52.052;8.354;2022-12-13T00:21:07;100209.00;;;1.20
16956;BMP180;8594;52.052;8.354;2022-12-13T00:23:35;100203.00;;;1.00
16956;BMP180;8594;52.052;8.354;2022-12-13T00:26:04;100201.00;;;0.90
16956;BMP180;8594;52.052;8.354;2022-12-13T00:28:31;100202.00;;;1.30
16956;BMP180;8594;52.052;8.354;2022-12-13T00:30:59;100195.00;;;1.20
16956;BMP180;8594;52.052;8.354;2022-12-13T00:33:26;100196.00;;;1.20
16956;BMP180;8594;52.052;8.354;2022-12-13T00:35:55;100201.00;;;1.20
16956;BMP180;8594;52.052;8.354;2022-12-13T00:38:23;100200.00;;;1.20
16956;BMP180;8594;52.052;8.354;2022-12-13T00:40:51;100203.00;;;1.30
16956;BMP180;8594;52.052;8.354;2022-12-13T00:43:18;100199.00;;;0.70
16956;BMP180;8594;52.052;8.354;2022-12-13T00:45:45;100199.00;;;1.10
16956;BMP180;8594;52.052;8.354;2022-12-13T00:48:12;100204.00;;;1.10
16956;BMP180;8594;52.052;8.354;2022-12-13T00:50:39;100204.00;;;0.80
16956;BMP180;8594;52.052;8.354;2022-12-13T00:53:06;100206.00;;;0.70
16956;BMP180;8594;52.052;8.354;2022-12-13T00:55:33;100196.00;;;0.60
16956;BMP180;8594;52.052;8.354;2022-12-13T00:58:01;100200.00;;;0.70
16956;BMP180;8594;52.052;8.354;2022-12-13T01:00:28;100190.00;;;0.60
16956;BMP180;8594;52.052;8.354;2022-12-13T01:02:55;100201.00;;;1.30
16956;BMP180;8594;52.052;8.354;2022-12-13T01:05:22;100196.00;;;1.50
16956;BMP180;8594;52.052;8.354;2022-12-13T01:07:49;100191.00;;;1.10
16956;BMP180;8594;52.052;8.354;2022-12-13T01:10:16;100189.00;;;1.20
16956;BMP180;8594;52.052;8.354;2022-12-13T01:12:43;100189.00;;;0.70
16956;BMP180;8594;52.052;8.354;2022-12-13T01:15:13;100188.00;;;0.40
16956;BMP180;8594;52.052;8.354;2022-12-13T01:17:40;100190.00;;;0.20
16956;BMP180;8594;52.052;8.354;2022-12-13T01:20:09;100181.00;;;-0.40
16956;BMP180;8594;52.052;8.354;2022-12-13T01:22:36;100188.00;;;-0.30
16956;BMP180;8594;52.052;8.354;2022-12-13T01:25:04;100189.00;;;0.00
16956;BMP180;8594;52.052;8.354;2022-12-13T01:27:31;100182.00;;;-0.20
16956;BMP180;8594;52.052;8.354;2022-12-13T01:29:58;100188.00;;;0.50
16956;BMP180;8594;52.052;8.354;2022-12-13T01:32:26;100190.00;;;0.80
16956;BMP180;8594;52.052;8.354;2022-12-13T01:34:53;100192.00;;;1.10
16956;BMP180;8594;52.052;8.354;2022-12-13T01:37:20;100180.00;;;1.20
16956;BMP180;8594;52.052;8.354;2022-12-13T01:39:47;100185.00;;;0.50
16956;BMP180;8594;52.052;8.354;2022-12-13T01:42:14;100184.00;;;0.60
16956;BMP180;8594;52.052;8.354;2022-12-13T01:45:21;100184.00;;;0.60
16956;BMP180;8594;52.052;8.354;2022-12-13T01:47:53;100187.00;;;0.40
16956;BMP180;8594;52.052;8.354;2022-12-13T01:50:29;100178.00;;;0.50
16956;BMP180;8594;52.052;8.354;2022-12-13T01:53:00;100181.00;;;0.60
16956;BMP180;8594;52.052;8.354;2022-12-13T01:55:30;100167.00;;;0.50
16956;BMP180;8594;52.052;8.354;2022-12-13T01:58:01;100175.00;;;0.60
16956;BMP180;8594;52.052;8.354;2022-12-13T02:00:29;100165.00;;;0.40
16956;BMP180;8594;52.052;8.354;2022-12-13T02:02:59;100171.00;;;0.00
16956;BMP180;8594;52.052;8.354;2022-12-13T02:05:31;100177.00;;;0.20
16956;BMP180;8594;52.052;8.354;2022-12-13T02:08:01;100166.00;;;0.10
16956;BMP180;8594;52.052;8.354;2022-12-13T02:10:30;100170.00;;;0.10
16956;BMP180;8594;52.052;8.354;2022-12-13T02:12:57;100167.00;;;0.30
16956;BMP180;8594;52.052;8.354;2022-12-13T02:15:30;100167.00;;;0.40
16956;BMP180;8594;52.052;8.354;2022-12-13T02:18:23;100180.00;;;0.60
16956;BMP180;8594;52.052;8.354;2022-12-13T02:21:02;100181.00;;;0.40
16956;BMP180;8594;52.052;8.354;2022-12-13T02:27:10;100169.00;;;0.40
16956;BMP180;8594;52.052;8.354;2022-12-13T02:30:23;100175.00;;;0.60
16956;BMP180;8594;52.052;8.354;2022-12-13T02:33:24;100173.00;;;0.40
16956;BMP180;8594;52.052;8.354;2022-12-13T02:36:05;100162.00;;;0.20
16956;BMP180;8594;52.052;8.354;2022-12-13T02:38:42;100168.00;;;0.00
16956;BMP180;8594;52.052;8.354;2022-12-13T02:41:22;100168.00;;;0.30
16956;BMP180;8594;52.052;8.354;2022-12-13T02:43:58;100168.00;;;0.80
16956;BMP180;8594;52.052;8.354;2022-12-13T02:46:33;100165.00;;;0.10
16956;BMP180;8594;52.052;8.354;2022-12-13T02:49:02;100164.00;;;0.50
16956;BMP180;8594;52.052;8.354;2022-12-13T02:51:31;100176.00;;;0.20
16956;BMP180;8594;52.052;8.354;2022-12-13T02:53:58;100171.00;;;-0.10
16956;BMP180;8594;52.052;8.354;2022-12-13T02:56:25;100166.00;;;0.10
16956;BMP180;8594;52.052;8.354;2022-12-13T02:58:54;100173.00;;;0.00
16956;BMP180;8594;52.052;8.354;2022-12-13T03:01:48;100171.00;;;0.00
16956;BMP180;8594;52.052;8.354;2022-12-13T03:04:31;100173.00;;;-0.10
16956;BMP180;8594;52.052;8.354;2022-12-13T03:07:13;100165.00;;;-0.30
16956;BMP180;8594;52.052;8.354;2022-12-13T03:10:00;100177.00;;;0.00
16956;BMP180;8594;52.052;8.354;2022-12-13T03:12:37;100179.00;;;0.10
16956;BMP180;8594;52.052;8.354;2022-12-13T03:15:29;100167.00;;;-0.40
16956;BMP180;8594;52.052;8.354;2022-12-13T03:18:06;100180.00;;;0.20
16956;BMP180;8594;52.052;8.354;2022-12-13T03:20:45;100179.00;;;-0.30
16956;BMP180;8594;52.052;8.354;2022-12-13T03:23:14;100184.00;;;-0.40
16956;BMP180;8594;52.052;8.354;2022-12-13T03:25:41;100184.00;;;-0.50
16956;BMP180;8594;52.052;8.354;2022-12-13T03:28:08;100180.00;;;-0.50
16956;BMP180;8594;52.052;8.354;2022-12-13T03:30:35;100181.00;;;-0.40
16956;BMP180;8594;52.052;8.354;2022-12-13T03:33:03;100176.00;;;-0.30
16956;BMP180;8594;52.052;8.354;2022-12-13T03:35:31;100176.00;;;-0.20
16956;BMP180;8594;52.052;8.354;2022-12-13T03:37:59;100164.00;;;-0.50
16956;BMP180;8594;52.052;8.354;2022-12-13T03:40:28;100164.00;;;-0.70
16956;BMP180;8594;52.052;8.354;2022-12-13T03:42:56;100164.00;;;-0.90
16956;BMP180;8594;52.052;8.354;2022-12-13T03:45:23;100171.00;;;-0.60
16956;BMP180;8594;52.052;8.354;2022-12-13T03:47:50;100170.00;;;-0.30
16956;BMP180;8594;52.052;8.354;2022-12-13T03:50:18;100182.00;;;-0.40
16956;BMP180;8594;52.052;8.354;2022-12-13T03:52:45;100177.00;;;-0.40
16956;BMP180;8594;52.052;8.354;2022-12-13T03:55:12;100174.00;;;-0.20
16956;BMP180;8594;52.052;8.354;2022-12-13T03:57:39;100171.00;;;-0.80
16956;BMP180;8594;52.052;8.354;2022-12-13T04:00:08;100171.00;;;-0.80
16956;BMP180;8594;52.052;8.354;2022-12-13T04:02:35;100172.00;;;-1.30
16956;BMP180;8594;52.052;8.354;2022-12-13T04:05:03;100171.00;;;-0.20
16956;BMP180;8594;52.052;8.354;2022-12-13T04:07:31;100166.00;;;-0.40
16956;BMP180;8594;52.052;8.354;2022-12-13T04:09:58;100168.00;;;-0.70
16956;BMP180;8594;52.052;8.354;2022-12-13T04:12:25;100169.00;;;-0.20
16956;BMP180;8594;52.052;8.354;2022-12-13T04:15:10;100174.00;;;-0.10
16956;BMP180;8594;52.052;8.354;2022-12-13T04:17:37;100166.00;;;-0.20
16956;BMP180;8594;52.052;8.354;2022-12-13T04:20:05;100153.00;;;-0.30
16956;BMP180;8594;52.052;8.354;2022-12-13T04:22:33;100156.00;;;-0.30
16956;BMP180;8594;52.052;8.354;2022-12-13T04:25:00;100161.00;;;-0.20
16956;BMP180;8594;52.052;8.354;2022-12-13T04:27:27;100163.00;;;-0.30
16956;BMP180;8594;52.052;8.354;2022-12-13T04:29:54;100165.00;;;-0.30
16956;BMP180;8594;52.052;8.354;2022-12-13T04:32:21;100164.00;;;-0.40
16956;BMP180;8594;52.052;8.354;2022-12-13T04:34:48;100161.00;;;-0.50
16956;BMP180;8594;52.052;8.354;2022-12-13T04:37:16;100167.00;;;-0.40
16956;BMP180;8594;52.052;8.354;2022-12-13T04:39:44;100167.00;;;-0.40
16956;BMP180;8594;52.052;8.354;2022-12-13T04:42:11;100164.00;;;-0.60
16956;BMP180;8594;52.052;8.354;2022-12-13T04:44:38;100160.00;;;-0.50
16956;BMP180;8594;52.052;8.354;2022-12-13T04:47:05;100162.00;;;-0.70
16956;BMP180;8594;52.052;8.354;2022-12-13T04:49:33;100153.00;;;-0.40
16956;BMP180;8594;52.052;8.354;2022-12-13T04:52:00;100166.00;;;-0.60
16956;BMP180;8594;52.052;8.354;2022-12-13T04:54:28;100153.00;;;-0.80
16956;BMP180;8594;52.052;8.354;2022-12-13T04:56:56;100154.00;;;-0.80
16956;BMP180;8594;52.052;8.354;2022-12-13T04:59:24;100157.00;;;-1.10
16956;BMP180;8594;52.052;8.354;2022-12-13T05:01:51;100152.00;;;-1.00
16956;BMP180;8594;52.052;8.354;2022-12-13T05:04:18;100152.00;;;-1.40
16956;BMP180;8594;52.052;8.354;2022-12-13T05:06:45;100153.00;;;-0.70
16956;BMP180;8594;52.052;8.354;2022-12-13T05:09:12;100148.00;;;-1.00
16956;BMP180;8594;52.052;8.354;2022-12-13T05:11:39;100151.00;;;-1.10
16956;BMP180;8594;52.052;8.354;2022-12-13T05:14:07;100151.00;;;-1.20
16956;BMP180;8594;52.052;8.354;2022-12-13T05:16:34;100152.00;;;-1.20
16956;BMP180;8594;52.052;8.354;2022-12-13T05:19:01;100146.00;;;-0.80
16956;BMP180;8594;52.052;8.354;2022-12-13T05:21:28;100148.00;;;-0.80
16956;BMP180;8594;52.052;8.354;2022-12-13T05:23:55;100146.00;;;-0.80
16956;BMP180;8594;52.052;8.354;2022-12-13T05:26:22;100140.00;;;-0.90
16956;BMP180;8594;52.052;8.354;2022-12-13T05:28:49;100135.00;;;-0.90
16956;BMP180;8594;52.052;8.354;2022-12-13T05:31:17;100137.00;;;-0.90
16956;BMP180;8594;52.052;8.354;2022-12-13T05:33:44;100133.00;;;-0.80
16956;BMP180;8594;52.052;8.354;2022-12-13T05:36:11;100139.00;;;-0.60
16956;BMP180;8594;52.052;8.354;2022-12-13T05:38:38;100143.00;;;-0.80
16956;BMP180;8594;52.052;8.354;2022-12-13T05:41:05;100140.00;;;-0.60
16956;BMP180;8594;52.052;8.354;2022-12-13T05:43:32;100134.00;;;-0.60
16956;BMP180;8594;52.052;8.354;2022-12-13T05:45:59;100130.00;;;-0.30
16956;BMP180;8594;52.052;8.354;2022-12-13T05:48:27;100131.00;;;-0.50
16956;BMP180;8594;52.052;8.354;2022-12-13T05:50:54;100122.00;;;-0.60
16956;BMP180;8594;52.052;8.354;2022-12-13T05:53:21;100121.00;;;-0.80
16956;BMP180;8594;52.052;8.354;2022-12-13T05:55:48;100119.00;;;-1.00
16956;BMP180;8594;52.052;8.354;2022-12-13T05:58:15;100118.00;;;-0.30
16956;BMP180;8594;52.052;8.354;2022-12-13T06:00:42;100119.00;;;-0.50
16956;BMP180;8594;52.052;8.354;2022-12-13T06:03:09;100126.00;;;-0.90
16956;BMP180;8594;52.052;8.354;2022-12-13T06:05:38;100119.00;;;-0.60
16956;BMP180;8594;52.052;8.354;2022-12-13T06:08:06;100119.00;;;-0.70
16956;BMP180;8594;52.052;8.354;2022-12-13T06:10:33;100118.00;;;-0.90
16956;BMP180;8594;52.052;8.354;2022-12-13T06:13:00;100121.00;;;-0.90
16956;BMP180;8594;52.052;8.354;2022-12-13T06:15:27;100118.00;;;-1.00
16956;BMP180;8594;52.052;8.354;2022-12-13T06:17:54;100118.00;;;-0.90
16956;BMP180;8594;52.052;8.354;2022-12-13T06:20:21;100117.00;;;-1.00
16956;BMP180;8594;52.052;8.354;2022-12-13T06:22:50;100112.00;;;-1.40
16956;BMP180;8594;52.052;8.354;2022-12-13T06:25:17;100112.00;;;-1.20
16956;BMP180;8594;52.052;8.354;2022-12-13T06:27:44;100115.00;;;-0.90
16956;BMP180;8594;52.052;8.354;2022-12-13T06:30:12;100123.00;;;-0.90
16956;BMP180;8594;52.052;8.354;2022-12-13T06:32:39;100121.00;;;-1.20
16956;BMP180;8594;52.052;8.354;2022-12-13T06:35:07;100119.00;;;-1.00
16956;BMP180;8594;52.052;8.354;2022-12-13T06:37:34;100123.00;;;-0.80
16956;BMP180;8594;52.052;8.354;2022-12-13T06:40:04;100124.00;;;-0.80
16956;BMP180;8594;52.052;8.354;2022-12-13T06:42:31;100124.00;;;-0.80
16956;BMP180;8594;52.052;8.354;2022-12-13T06:44:58;100128.00;;;-0.60
16956;BMP180;8594;52.052;8.354;2022-12-13T06:47:25;100128.00;;;-0.60
16956;BMP180;8594;52.052;8.354;2022-12-13T06:49:52;100133.00;;;-0.60
16956;BMP180;8594;52.052;8.354;2022-12-13T06:52:19;100128.00;;;-0.70
16956;BMP180;8594;52.052;8.354;2022-12-13T06:54:46;100131.00;;;-0.80
16956;BMP180;8594;52.052;8.354;2022-12-13T06:57:14;100136.00;;;-0.50
16956;BMP180;8594;52.052;8.354;2022-12-13T06:59:41;100142.00;;;-0.60
16956;BMP180;8594;52.052;8.354;2022-12-13T07:02:08;100140.00;;;-0.70
16956;BMP180;8594;52.052;8.354;2022-12-13T07:04:36;100141.00;;;-0.70
16956;BMP180;8594;52.052;8.354;2022-12-13T07:07:02;100130.00;;;-0.60
16956;BMP180;8594;52.052;8.354;2022-12-13T07:09:30;100141.00;;;-0.60
16956;BMP180;8594;52.052;8.354;2022-12-13T07:11:58;100144.00;;;-0.70
16956;BMP180;8594;52.052;8.354;2022-12-13T07:14:27;100137.00;;;-0.60
16956;BMP180;8594;52.052;8.354;2022-12-13T07:16:54;100147.00;;;-0.70
16956;BMP180;8594;52.052;8.354;2022-12-13T07:19:21;100145.00;;;-0.90
16956;BMP180;8594;52.052;8.354;2022-12-13T07:21:47;100140.00;;;-1.30
16956;BMP180;8594;52.052;8.354;2022-12-13T07:24:14;100142.00;;;-1.00
16956;BMP180;8594;52.052;8.354;2022-12-13T07:26:41;100140.00;;;-1.20
16956;BMP180;8594;52.052;8.354;2022-12-13T07:29:08;100136.00;;;-1.10
16956;BMP180;8594;52.052;8.354;2022-12-13T07:31:37;100147.00;;;-0.90
16956;BMP180;8594;52.052;8.354;2022-12-13T07:34:03;100144.00;;;-0.80
16956;BMP180;8594;52.052;8.354;2022-12-13T07:36:30;100152.00;;;-0.60
16956;BMP180;8594;52.052;8.354;2022-12-13T07:38:58;100145.00;;;-0.60
16956;BMP180;8594;52.052;8.354;2022-12-13T07:41:26;100145.00;;;-0.60
16956;BMP180;8594;52.052;8.354;2022-12-13T07:43:53;100152.00;;;-0.40
16956;BMP180;8594;52.052;8.354;2022-12-13T07:46:21;100143.00;;;-0.90
16956;BMP180;8594;52.052;8.354;2022-12-13T07:48:50;100145.00;;;-1.00
16956;BMP180;8594;52.052;8.354;2022-12-13T07:51:17;100147.00;;;-1.10
16956;BMP180;8594;52.052;8.354;2022-12-13T07:53:44;100147.00;;;-1.10
16956;BMP180;8594;52.052;8.354;2022-12-13T07:56:11;100147.00;;;-0.90
16956;BMP180;8594;52.052;8.354;2022-12-13T07:58:38;100139.00;;;-0.70
16956;BMP180;8594;52.052;8.354;2022-12-13T08:01:09;100147.00;;;-0.50
16956;BMP180;8594;52.052;8.354;2022-12-13T08:03:37;100153.00;;;-0.40
16956;BMP180;8594;52.052;8.354;2022-12-13T08:06:08;100156.00;;;-0.40
16956;BMP180;8594;52.052;8.354;2022-12-13T08:08:36;100152.00;;;-0.50
16956;BMP180;8594;52.052;8.354;2022-12-13T08:11:06;100153.00;;;-0.50
16956;BMP180;8594;52.052;8.354;2022-12-13T08:13:34;100148.00;;;-0.20
16956;BMP180;8594;52.052;8.354;2022-12-13T08:16:05;100158.00;;;-0.10
16956;BMP180;8594;52.052;8.354;2022-12-13T08:18:32;100144.00;;;-0.20
16956;BMP180;8594;52.052;8.354;2022-12-13T08:21:00;100145.00;;;-0.20
16956;BMP180;8594;52.052;8.354;2022-12-13T08:23:31;100155.00;;;0.10
16956;BMP180;8594;52.052;8.354;2022-12-13T08:26:00;100147.00;;;0.30
16956;BMP180;8594;52.052;8.354;2022-12-13T08:28:28;100147.00;;;0.30
16956;BMP180;8594;52.052;8.354;2022-12-13T08:31:03;100141.00;;;0.40
16956;BMP180;8594;52.052;8.354;2022-12-13T08:33:31;100150.00;;;0.60
16956;BMP180;8594;52.052;8.354;2022-12-13T08:36:07;100152.00;;;1.00
16956;BMP180;8594;52.052;8.354;2022-12-13T08:38:36;100144.00;;;1.60
16956;BMP180;8594;52.052;8.354;2022-12-13T08:41:03;100145.00;;;2.10
16956;BMP180;8594;52.052;8.354;2022-12-13T08:43:30;100150.00;;;2.90
16956;BMP180;8594;52.052;8.354;2022-12-13T08:45:57;100142.00;;;3.40
16956;BMP180;8594;52.052;8.354;2022-12-13T08:48:24;100143.00;;;3.80
16956;BMP180;8594;52.052;8.354;2022-12-13T08:50:51;100142.00;;;4.30
16956;BMP180;8594;52.052;8.354;2022-12-13T08:53:18;100140.00;;;4.50
16956;BMP180;8594;52.052;8.354;2022-12-13T08:55:47;100153.00;;;4.70
16956;BMP180;8594;52.052;8.354;2022-12-13T08:58:14;100151.00;;;5.00
16956;BMP180;8594;52.052;8.354;2022-12-13T09:00:41;100153.00;;;5.20
16956;BMP180;8594;52.052;8.354;2022-12-13T09:03:09;100154.00;;;5.20
16956;BMP180;8594;52.052;8.354;2022-12-13T09:05:37;100155.00;;;5.60
16956;BMP180;8594;52.052;8.354;2022-12-13T09:08:04;100155.00;;;5.80
16956;BMP180;8594;52.052;8.354;2022-12-13T09:10:31;100166.00;;;6.00
16956;BMP180;8594;52.052;8.354;2022-12-13T09:13:00;100165.00;;;6.60
16956;BMP180;8594;52.052;8.354;2022-12-13T09:15:28;100170.00;;;6.10
16956;BMP180;8594;52.052;8.354;2022-12-13T09:17:55;100164.00;;;6.00
16956;BMP180;8594;52.052;8.354;2022-12-13T09:20:22;100168.00;;;7.00
16956;BMP180;8594;52.052;8.354;2022-12-13T09:22:49;100162.00;;;6.20
16956;BMP180;8594;52.052;8.354;2022-12-13T09:25:17;100164.00;;;6.40
16956;BMP180;8594;52.052;8.354;2022-12-13T09:27:44;100160.00;;;7.20
16956;BMP180;8594;52.052;8.354;2022-12-13T09:30:14;100168.00;;;7.70
16956;BMP180;8594;52.052;8.354;2022-12-13T09:32:41;100166.00;;;7.20
16956;BMP180;8594;52.052;8.354;2022-12-13T09:35:14;100167.00;;;7.00
16956;BMP180;8594;52.052;8.354;2022-12-13T09:37:41;100169.00;;;7.00
16956;BMP180;8594;52.052;8.354;2022-12-13T09:40:15;100172.00;;;7.50
16956;BMP180;8594;52.052;8.354;2022-12-13T09:42:49;100178.00;;;8.00
16956;BMP180;8594;52.052;8.354;2022-12-13T09:45:20;100180.00;;;7.30
16956;BMP180;8594;52.052;8.354;2022-12-13T09:47:48;100182.00;;;7.50
16956;BMP180;8594;52.052;8.354;2022-12-13T09:50:24;100177.00;;;7.50
16956;BMP180;8594;52.052;8.354;2022-12-13T09:52:51;100177.00;;;7.70
16956;BMP180;8594;52.052;8.354;2022-12-13T09:55:21;100177.00;;;7.80
16956;BMP180;8594;52.052;8.354;2022-12-13T09:57:50;100185.00;;;8.30
16956;BMP180;8594;52.052;8.354;2022-12-13T10:00:21;100183.00;;;7.90
16956;BMP180;8594;52.052;8.354;2022-12-13T10:02:52;100185.00;;;7.30
16956;BMP180;8594;52.052;8.354;2022-12-13T10:05:27;100182.00;;;7.40
16956;BMP180;8594;52.052;8.354;2022-12-13T10:07:58;100176.00;;;7.30
16956;BMP180;8594;52.052;8.354;2022-12-13T10:10:26;100181.00;;;7.20
16956;BMP180;8594;52.052;8.354;2022-12-13T10:13:05;100182.00;;;7.60
16956;BMP180;8594;52.052;8.354;2022-12-13T10:15:38;100191.00;;;7.90
16956;BMP180;8594;52.052;8.354;2022-12-13T10:18:12;100166.00;;;6.90
16956;BMP180;8594;52.052;8.354;2022-12-13T10:20:40;100180.00;;;8.00
16956;BMP180;8594;52.052;8.354;2022-12-13T10:23:07;100178.00;;;8.40
16956;BMP180;8594;52.052;8.354;2022-12-13T10:25:46;100177.00;;;7.80
16956;BMP180;8594;52.052;8.354;2022-12-13T10:28:17;100170.00;;;7.70
16956;BMP180;8594;52.052;8.354;2022-12-13T10:30:49;100168.00;;;7.80
16956;BMP180;8594;52.052;8.354;2022-12-13T10:33:23;100165.00;;;8.00
16956;BMP180;8594;52.052;8.354;2022-12-13T10:36:15;100169.00;;;8.60
16956;BMP180;8594;52.052;8.354;2022-12-13T10:38:55;100169.00;;;8.60
16956;BMP180;8594;52.052;8.354;2022-12-13T10:41:33;100163.00;;;8.20
16956;BMP180;8594;52.052;8.354;2022-12-13T10:44:20;100153.00;;;8.00
16956;BMP180;8594;52.052;8.354;2022-12-13T10:47:01;100150.00;;;8.10
16956;BMP180;8594;52.052;8.354;2022-12-13T10:49:37;100150.00;;;9.00
16956;BMP180;8594;52.052;8.354;2022-12-13T10:52:17;100148.00;;;9.40
16956;BMP180;8594;52.052;8.354;2022-12-13T10:54:47;100137.00;;;7.60
16956;BMP180;8594;52.052;8.354;2022-12-13T10:57:15;100136.00;;;8.20
16956;BMP180;8594;52.052;8.354;2022-12-13T10:59:44;100147.00;;;7.90
16956;BMP180;8594;52.052;8.354;2022-12-13T11:02:32;100135.00;;;7.90
16956;BMP180;8594;52.052;8.354;2022-12-13T11:05:22;100132.00;;;8.50
16956;BMP180;8594;52.052;8.354;2022-12-13T11:07:49;100131.00;;;7.70
16956;BMP180;8594;52.052;8.354;2022-12-13T11:10:22;100127.00;;;8.10
16956;BMP180;8594;52.052;8.354;2022-12-13T11:12:50;100111.00;;;8.10
16956;BMP180;8594;52.052;8.354;2022-12-13T11:15:22;100110.00;;;8.20
16956;BMP180;8594;52.052;8.354;2022-12-13T11:17:56;100109.00;;;9.10
16956;BMP180;8594;52.052;8.354;2022-12-13T11:20:29;100100.00;;;8.30
16956;BMP180;8594;52.052;8.354;2022-12-13T11:23:04;100104.00;;;8.70
16956;BMP180;8594;52.052;8.354;2022-12-13T11:25:38;100106.00;;;8.50
16956;BMP180;8594;52.052;8.354;2022-12-13T11:28:40;100096.00;;;8.90
16956;BMP180;8594;52.052;8.354;2022-12-13T11:31:19;100097.00;;;8.40
16956;BMP180;8594;52.052;8.354;2022-12-13T11:34:00;100091.00;;;8.20
16956;BMP180;8594;52.052;8.354;2022-12-13T11:36:42;100085.00;;;8.10
16956;BMP180;8594;52.052;8.354;2022-12-13T11:39:19;100085.00;;;8.70
16956;BMP180;8594;52.052;8.354;2022-12-13T11:41:52;100078.00;;;8.50
16956;BMP180;8594;52.052;8.354;2022-12-13T11:44:29;100079.00;;;8.60
16956;BMP180;8594;52.052;8.354;2022-12-13T11:47:00;100079.00;;;8.40
16956;BMP180;8594;52.052;8.354;2022-12-13T11:49:37;100082.00;;;7.90
16956;BMP180;8594;52.052;8.354;2022-12-13T11:52:15;100070.00;;;8.90
16956;BMP180;8594;52.052;8.354;2022-12-13T11:54:53;100064.00;;;8.60
16956;BMP180;8594;52.052;8.354;2022-12-13T11:57:36;100063.00;;;8.40
16956;BMP180;8594;52.052;8.354;2022-12-13T12:00:20;100052.00;;;8.50
16956;BMP180;8594;52.052;8.354;2022-12-13T12:02:52;100061.00;;;8.70
16956;BMP180;8594;52.052;8.354;2022-12-13T12:05:31;100061.00;;;9.00
16956;BMP180;8594;52.052;8.354;2022-12-13T12:08:04;100051.00;;;8.00
16956;BMP180;8594;52.052;8.354;2022-12-13T12:10:36;100054.00;;;8.10
16956;BMP180;8594;52.052;8.354;2022-12-13T12:13:14;100047.00;;;8.00
16956;BMP180;8594;52.052;8.354;2022-12-13T12:15:49;100038.00;;;7.70
16956;BMP180;8594;52.052;8.354;2022-12-13T12:18:18;100032.00;;;8.10
16956;BMP180;8594;52.052;8.354;2022-12-13T12:21:07;100043.00;;;8.00
16956;BMP180;8594;52.052;8.354;2022-12-13T12:23:57;100046.00;;;8.40
16956;BMP180;8594;52.052;8.354;2022-12-13T12:26:36;100042.00;;;7.60
16956;BMP180;8594;52.052;8.354;2022-12-13T12:29:38;100040.00;;;7.80
16956;BMP180;8594;52.052;8.354;2022-12-13T12:32:21;100037.00;;;8.00
16956;BMP180;8594;52.052;8.354;2022-12-13T12:35:06;100030.00;;;8.00
16956;BMP180;8594;52.052;8.354;2022-12-13T12:37:48;100017.00;;;8.20
16956;BMP180;8594;52.052;8.354;2022-12-13T12:40:45;100040.00;;;7.50
16956;BMP180;8594;52.052;8.354;2022-12-13T12:43:26;100039.00;;;7.70
16956;BMP180;8594;52.052;8.354;2022-12-13T12:46:13;100033.00;;;7.20
16956;BMP180;8594;52.052;8.354;2022-12-13T12:49:20;100039.00;;;7.10
16956;BMP180;8594;52.052;8.354;2022-12-13T12:52:01;100037.00;;;7.30
16956;BMP180;8594;52.052;8.354;2022-12-13T12:54:43;100034.00;;;7.10
16956;BMP180;8594;52.052;8.354;2022-12-13T12:57:22;100036.00;;;7.00
16956;BMP180;8594;52.052;8.354;2022-12-13T13:00:03;100033.00;;;7.00
16956;BMP180;8594;52.052;8.354;2022-12-13T13:02:40;100028.00;;;6.80
16956;BMP180;8594;52.052;8.354;2022-12-13T13:05:19;100031.00;;;6.90
16956;BMP180;8594;52.052;8.354;2022-12-13T13:07:53;100026.00;;;5.50
16956;BMP180;8594;52.052;8.354;2022-12-13T13:10:23;100019.00;;;5.70
16956;BMP180;8594;52.052;8.354;2022-12-13T13:12:52;100020.00;;;6.60
16956;BMP180;8594;52.052;8.354;2022-12-13T13:15:52;100026.00;;;6.80
16956;BMP180;8594;52.052;8.354;2022-12-13T13:18:53;100017.00;;;6.80
16956;BMP180;8594;52.052;8.354;2022-12-13T13:21:44;100019.00;;;7.10
16956;BMP180;8594;52.052;8.354;2022-12-13T13:24:24;100010.00;;;7.00
16956;BMP180;8594;52.052;8.354;2022-12-13T13:26:55;100022.00;;;6.90
16956;BMP180;8594;52.052;8.354;2022-12-13T13:29:35;100022.00;;;6.30
16956;BMP180;8594;52.052;8.354;2022-12-13T13:32:23;100024.00;;;6.30
16956;BMP180;8594;52.052;8.354;2022-12-13T13:34:51;100026.00;;;7.00
16956;BMP180;8594;52.052;8.354;2022-12-13T13:37:46;100028.00;;;6.80
16956;BMP180;8594;52.052;8.354;2022-12-13T13:40:29;100020.00;;;6.00
16956;BMP180;8594;52.052;8.354;2022-12-13T13:43:28;100032.00;;;6.70
16956;BMP180;8594;52.052;8.354;2022-12-13T13:45:58;100022.00;;;6.80
16956;BMP180;8594;52.052;8.354;2022-12-13T13:48:43;100016.00;;;6.20
16956;BMP180;8594;52.052;8.354;2022-12-13T13:55:17;100016.00;;;6.00
16956;BMP180;8594;52.052;8.354;2022-12-13T14:01:58;100021.00;;;5.30
16956;BMP180;8594;52.052;8.354;2022-12-13T14:08:30;100028.00;;;5.40
16956;BMP180;8594;52.052;8.354;2022-12-13T14:15:10;100025.00;;;5.30
16956;BMP180;8594;52.052;8.354;2022-12-13T14:21:20;100018.00;;;5.60
16956;BMP180;8594;52.052;8.354;2022-12-13T14:24:02;100031.00;;;5.30
16956;BMP180;8594;52.052;8.354;2022-12-13T14:26:56;100031.00;;;5.60
16956;BMP180;8594;52.052;8.354;2022-12-13T14:29:29;100028.00;;;5.50
16956;BMP180;8594;52.052;8.354;2022-12-13T14:31:57;100027.00;;;5.10
16956;BMP180;8594;52.052;8.354;2022-12-13T14:34:27;100019.00;;;5.10
16956;BMP180;8594;52.052;8.354;2022-12-13T14:36:57;100023.00;;;5.20
16956;BMP180;8594;52.052;8.354;2022-12-13T14:39:26;100023.00;;;5.00
16956;BMP180;8594;52.052;8.354;2022-12-13T14:41:58;100026.00;;;4.80
16956;BMP180;8594;52.052;8.354;2022-12-13T14:44:27;100032.00;;;5.00
16956;BMP180;8594;52.052;8.354;2022-12-13T14:46:57;100026.00;;;4.70
16956;BMP180;8594;52.052;8.354;2022-12-13T14:49:30;100032.00;;;4.20
16956;BMP180;8594;52.052;8.354;2022-12-13T14:52:03;100038.00;;;4.70
16956;BMP180;8594;52.052;8.354;2022-12-13T14:54:40;100039.00;;;4.70
16956;BMP180;8594;52.052;8.354;2022-12-13T14:57:15;100041.00;;;4.60
16956;BMP180;8594;52.052;8.354;2022-12-13T14:59:44;100037.00;;;4.40
16956;BMP180;8594;52.052;8.354;2022-12-13T15:02:16;100042.00;;;4.20
16956;BMP180;8594;52.052;8.354;2022-12-13T15:04:44;100033.00;;;4.30
16956;BMP180;8594;52.052;8.354;2022-12-13T15:07:22;100041.00;;;4.40